Galesburg, MI (49053)

5:22 AM EDT on August 27, 2016 (GMT -0400)
Fleetwood | | Change Station
Active Advisory: Flood Warning

Elev 801 ft 42.29 °N, 85.43 °W | Updated 5 seconds ago

Clear
Clear
66.9 °F
Feels Like 66.9 °F
N
0.9
Wind Variable Wind from East
Gusts 2.5 mph

Today
High -- | Low -- °F
--% Chance of Precip.
Yesterday
High -- | Low -- °F
Precip. -- in
Pressure 30.11 in
Visibility 10.0 miles
Clouds Clear
Dew Point 53 °F
Humidity 61%
Rainfall 0.00 in
Snow Depth Not available.
7:02 AM 8:23 PM
Waning Crescent, 26% visible
METAR KAZO 270853Z AUTO 00000KT 10SM CLR 20/16 A3012 RMK AO2 SLP196 T02000156 58005
Pressure 30.11 in
Visibility 10.0 miles
Clouds Clear
Dew Point 53 °F
Humidity 61%
Rainfall 0.00 in
Snow Depth Not available.
7:02 AM 8:23 PM
Waning Crescent, 26% visible
METAR KAZO 270853Z AUTO 00000KT 10SM CLR 20/16 A3012 RMK AO2 SLP196 T02000156 58005

10-Day Weather Forecast

Almanac

Astronomy

Aug. 27, 2016 Rise Set
Actual Time
Civil Twilight
Nautical Twilight
Astronomical Twilight
Moon
Length of Visible Light
Length of Day
Tomorrow will be .
, % of the Moon is Illuminated

Today's Extremes

State Highs State Lows

Community

WunderPhotos

Upload Photos

1,935,313 photos uploaded!

WunderBlog® & News

Nearby

Air Quality

  Air Quality AQ Index Pollutant
Not available.

Snow Depth

Station Depth Elevation

Earthquake Activity

City Distance Mag. Time & Date
Minimum magnitude displayed is 2.5.

Coastal Water Temperatures

Place Temperature

Stations

Nearby Weather Stations

Station Location Temp. Windchill Dew Point Humidity Wind Precip. Elev Updated Type
                   

Watches & Warnings

Flood Warning
Issued: 10:54 PM EDT Aug. 26, 2016 – National Weather Service

The Flood Warning continues for
the Portage River near Vicksburg.
* Until Saturday afternoon.
* At 11:45 am Friday the stage was 5.1 feet.
* Flood stage is 5.0 feet.
* Minor flooding is occurring.
* Forecast, the river will continue to slowly fall tonight but may
rise again depending on rainfall amounts on Saturday.
* Impact, at 5.0 feet... expect overflows into wooded areas and
farmland adjacent to the river
* flood history, this crest compares to a previous crest of 5.0 feet
on Apr 20 2013.


Lat... Lon 4208 8547 4211 8544 4216 8544 4215 8548
      4211 8553 4208 8552